createdAt,value
2018-02-20T00:00:03.800Z,91932.59
2018-02-20T00:00:52.587Z,91933.41
2018-02-20T00:01:41.673Z,91930.85
2018-02-20T00:02:30.714Z,91932.18
2018-02-20T00:03:19.840Z,91929.81
2018-02-20T00:04:08.897Z,91935.39
2018-02-20T00:04:57.966Z,91929.36
2018-02-20T00:05:47.025Z,91931.24
2018-02-20T00:06:36.087Z,91931.70
2018-02-20T00:07:25.353Z,91930.67
2018-02-20T00:08:14.403Z,91930.77
2018-02-20T00:09:03.864Z,91928.86
2018-02-20T00:09:52.894Z,91928.47
2018-02-20T00:10:41.975Z,91931.51
2018-02-20T00:11:31.062Z,91924.66
2018-02-20T00:12:20.307Z,91927.13
2018-02-20T00:13:09.350Z,91927.58
2018-02-20T00:13:58.384Z,91922.61
2018-02-20T00:14:47.523Z,91930.38
2018-02-20T00:15:36.815Z,91926.59
2018-02-20T00:16:25.876Z,91927.61
2018-02-20T00:17:14.913Z,91927.00
2018-02-20T00:18:03.963Z,91925.77
2018-02-20T00:18:53.003Z,91928.08
2018-02-20T00:19:42.060Z,91925.77
2018-02-20T00:20:31.168Z,91920.45
2018-02-20T00:21:20.205Z,91925.61
2018-02-20T00:22:09.328Z,91920.27
2018-02-20T00:23:04.243Z,91922.86
2018-02-20T00:23:56.254Z,91924.80
2018-02-20T00:24:45.305Z,91920.62
2018-02-20T00:25:34.437Z,91920.61
2018-02-20T00:26:23.483Z,91922.91
2018-02-20T00:27:12.543Z,91917.14
2018-02-20T00:28:01.585Z,91921.33
2018-02-20T00:28:50.642Z,91915.30
2018-02-20T00:29:39.692Z,91920.27
2018-02-20T00:30:28.731Z,91919.69
2018-02-20T00:31:18.678Z,91916.66
2018-02-20T00:32:07.751Z,91913.81
2018-02-20T00:32:56.800Z,91920.25
2018-02-20T00:33:45.850Z,91916.18
2018-02-20T00:34:34.909Z,91917.34
2018-02-20T00:35:23.956Z,91914.01
2018-02-20T00:36:13.001Z,91912.26
2018-02-20T00:37:02.054Z,91911.77
2018-02-20T00:37:51.166Z,91909.76
2018-02-20T00:38:40.203Z,91906.30
2018-02-20T00:39:29.248Z,91906.81
2018-02-20T00:40:18.333Z,91911.31
2018-02-20T00:41:07.395Z,91915.23
2018-02-20T00:41:56.517Z,91908.20
2018-02-20T00:42:45.569Z,91906.20
2018-02-20T00:43:34.720Z,91906.20
2018-02-20T00:44:23.770Z,91908.50
2018-02-20T00:45:12.819Z,91905.22
2018-02-20T00:46:01.875Z,91902.02
2018-02-20T00:46:50.937Z,91906.27
2018-02-20T00:47:39.981Z,91899.97
2018-02-20T00:48:29.039Z,91906.09
2018-02-20T00:49:18.117Z,91907.88
2018-02-20T00:50:07.177Z,91905.45
2018-02-20T00:50:56.234Z,91905.64
2018-02-20T00:51:45.268Z,91902.08
2018-02-20T00:52:34.315Z,91901.76
2018-02-20T00:53:23.391Z,91906.09
2018-02-20T00:54:12.441Z,91899.48
2018-02-20T00:55:01.576Z,91905.91
2018-02-20T00:55:50.627Z,91899.87
2018-02-20T00:56:40.021Z,91900.91
2018-02-20T00:57:29.058Z,91899.30
2018-02-20T00:58:18.113Z,91903.70
2018-02-20T00:59:07.180Z,91905.29
2018-02-20T00:59:56.222Z,91901.66
2018-02-20T01:00:45.726Z,91900.78
2018-02-20T01:01:34.767Z,91901.84
2018-02-20T01:02:23.806Z,91900.16
2018-02-20T01:03:12.865Z,91903.80
2018-02-20T01:04:01.917Z,91899.27
2018-02-20T01:04:50.966Z,91898.96
2018-02-20T01:05:39.998Z,91899.13
2018-02-20T01:06:29.096Z,91894.10
2018-02-20T01:07:18.153Z,91899.52
2018-02-20T01:08:07.225Z,91897.73
2018-02-20T01:08:56.342Z,91898.70
2018-02-20T01:09:45.395Z,91896.61
2018-02-20T01:10:34.438Z,91895.11
2018-02-20T01:11:23.471Z,91898.83
2018-02-20T01:12:12.527Z,91901.30
2018-02-20T01:13:01.577Z,91895.20
2018-02-20T01:13:50.633Z,91898.13
2018-02-20T01:14:39.758Z,91898.09
2018-02-20T01:15:28.799Z,91889.66
2018-02-20T01:16:17.844Z,91886.48
2018-02-20T01:17:06.873Z,91897.21
2018-02-20T01:17:55.949Z,91895.43
2018-02-20T01:18:45.016Z,91895.55
2018-02-20T01:19:34.063Z,91892.41
2018-02-20T01:20:23.154Z,91888.63
2018-02-20T01:21:12.220Z,91888.47
2018-02-20T01:22:01.288Z,91888.70
2018-02-20T01:22:50.343Z,91889.53
2018-02-20T01:23:39.394Z,91886.75
2018-02-20T01:24:28.444Z,91889.31
2018-02-20T01:25:17.501Z,91887.78
2018-02-20T01:26:06.583Z,91883.93
2018-02-20T01:26:55.619Z,91890.02
2018-02-20T01:27:44.667Z,91887.98
2018-02-20T01:28:33.724Z,91879.81
2018-02-20T01:29:22.773Z,91883.73
2018-02-20T01:30:11.850Z,91878.61
2018-02-20T01:31:00.901Z,91881.72
2018-02-20T01:31:50.337Z,91880.66
2018-02-20T01:32:39.416Z,91875.44
2018-02-20T01:33:28.460Z,91876.86
2018-02-20T01:34:20.132Z,91872.06
2018-02-20T01:35:09.186Z,91875.28
2018-02-20T01:35:58.436Z,91875.23
2018-02-20T01:36:47.484Z,91875.14
2018-02-20T01:37:36.574Z,91877.38
2018-02-20T01:38:25.628Z,91878.13
2018-02-20T01:39:14.794Z,91877.96
2018-02-20T01:40:03.832Z,91875.70
2018-02-20T01:40:52.894Z,91876.31
2018-02-20T01:41:41.939Z,91872.97
2018-02-20T01:42:30.988Z,91877.41
2018-02-20T01:43:20.040Z,91873.66
2018-02-20T01:44:09.109Z,91875.23
2018-02-20T01:44:58.199Z,91876.60
2018-02-20T01:45:47.257Z,91871.61
2018-02-20T01:46:36.309Z,91868.34
2018-02-20T01:47:25.355Z,91868.80
2018-02-20T01:48:14.405Z,91874.20
2018-02-20T01:49:03.468Z,91869.16
2018-02-20T01:49:52.535Z,91870.73
2018-02-20T01:51:58.371Z,91869.67
2018-02-20T01:52:47.476Z,91860.82
2018-02-20T01:53:36.541Z,91870.48
2018-02-20T01:54:25.590Z,91867.79
2018-02-20T01:55:14.633Z,91869.18
2018-02-20T01:56:03.715Z,91865.03
2018-02-20T01:56:54.669Z,91865.16
2018-02-20T01:57:44.078Z,91869.89
2018-02-20T01:58:33.126Z,91865.58
2018-02-20T01:59:22.177Z,91867.52
2018-02-20T02:00:11.225Z,91862.34
2018-02-20T02:01:00.285Z,91861.30
2018-02-20T02:01:49.339Z,91857.25
2018-02-20T02:02:38.468Z,91862.65
2018-02-20T02:03:27.513Z,91860.28
2018-02-20T02:04:16.575Z,91858.14
2018-02-20T02:05:05.628Z,91864.70
2018-02-20T02:05:54.663Z,91857.52
2018-02-20T02:06:43.701Z,91857.38
2018-02-20T02:07:32.753Z,91858.58
2018-02-20T02:08:22.330Z,91862.47
2018-02-20T02:09:11.404Z,91855.74
2018-02-20T02:10:00.459Z,91855.27
2018-02-20T02:10:49.509Z,91858.09
2018-02-20T02:11:38.546Z,91854.16
2018-02-20T02:12:27.596Z,91861.36
2018-02-20T02:13:16.651Z,91859.88
2018-02-20T02:14:05.767Z,91861.72
2018-02-20T02:14:54.870Z,91857.53
2018-02-20T02:15:43.928Z,91859.52
2018-02-20T02:16:32.990Z,91864.62
2018-02-20T02:17:22.058Z,91862.22
2018-02-20T02:18:11.105Z,91862.58
2018-02-20T02:19:00.171Z,91861.09
2018-02-20T02:19:49.334Z,91857.11
2018-02-20T02:20:38.394Z,91863.14
2018-02-20T02:21:27.485Z,91854.70
2018-02-20T02:22:16.557Z,91859.59
2018-02-20T02:23:05.613Z,91859.55
2018-02-20T02:23:54.662Z,91859.04
2018-02-20T02:24:43.728Z,91854.15
2018-02-20T02:25:32.883Z,91860.11
2018-02-20T02:26:21.933Z,91855.17
2018-02-20T02:27:10.976Z,91852.94
2018-02-20T02:28:00.032Z,91855.81
2018-02-20T02:28:49.083Z,91852.70
2018-02-20T02:29:38.132Z,91850.55
2018-02-20T02:30:27.369Z,91852.49
2018-02-20T02:31:16.471Z,91849.89
2018-02-20T02:32:05.548Z,91850.61
2018-02-20T02:32:54.639Z,91849.48
2018-02-20T02:33:43.671Z,91848.83
2018-02-20T02:34:32.731Z,91848.47
2018-02-20T02:35:21.821Z,91848.31
2018-02-20T02:36:10.856Z,91846.73
2018-02-20T02:36:59.935Z,91850.62
2018-02-20T02:37:48.975Z,91847.23
2018-02-20T02:38:38.040Z,91845.31
2018-02-20T02:39:27.083Z,91847.81
2018-02-20T02:40:16.124Z,91851.68
2018-02-20T02:41:05.177Z,91847.23
2018-02-20T02:41:54.240Z,91844.99
2018-02-20T02:42:46.737Z,91846.64
2018-02-20T02:43:35.793Z,91844.09
2018-02-20T02:44:24.842Z,91847.61
2018-02-20T02:45:13.880Z,91848.56
2018-02-20T02:46:02.923Z,91850.34
2018-02-20T02:46:51.986Z,91850.58
2018-02-20T02:47:41.023Z,91850.67
2018-02-20T02:48:30.119Z,91849.25
2018-02-20T02:49:19.168Z,91848.83
2018-02-20T02:50:08.281Z,91852.66
2018-02-20T02:50:57.373Z,91845.70
2018-02-20T02:51:46.430Z,91850.48
2018-02-20T02:52:35.480Z,91844.23
2018-02-20T02:53:24.537Z,91853.25
2018-02-20T02:54:13.600Z,91846.66
2018-02-20T02:55:02.653Z,91849.83
2018-02-20T02:55:51.702Z,91853.65
2018-02-20T02:56:40.791Z,91855.17
2018-02-20T02:57:29.857Z,91848.08
2018-02-20T02:58:18.912Z,91849.67
2018-02-20T02:59:07.963Z,91846.56
2018-02-20T02:59:57.131Z,91846.23
2018-02-20T03:00:46.175Z,91854.67
2018-02-20T03:01:35.239Z,91843.25
2018-02-20T03:02:24.288Z,91847.43
2018-02-20T03:03:13.341Z,91848.44
2018-02-20T03:04:02.390Z,91849.27
2018-02-20T03:04:51.440Z,91850.52
2018-02-20T03:05:40.544Z,91850.00
2018-02-20T03:06:29.592Z,91846.36
2018-02-20T03:07:18.656Z,91847.31
2018-02-20T03:08:07.772Z,91841.43
2018-02-20T03:08:56.819Z,91839.52
2018-02-20T03:09:45.872Z,91836.09
2018-02-20T03:10:34.925Z,91843.38
2018-02-20T03:11:24.014Z,91840.08
2018-02-20T03:12:13.074Z,91841.93
2018-02-20T03:13:02.137Z,91839.08
2018-02-20T03:13:51.202Z,91841.05
2018-02-20T03:14:40.253Z,91843.30
2018-02-20T03:15:29.543Z,91837.20
2018-02-20T03:16:18.578Z,91843.42
2018-02-20T03:17:07.761Z,91838.59
2018-02-20T03:17:56.809Z,91836.59
2018-02-20T03:18:45.852Z,91836.09
2018-02-20T03:19:34.942Z,91841.05
2018-02-20T03:20:23.978Z,91837.36
2018-02-20T03:21:13.023Z,91836.36
2018-02-20T03:22:02.086Z,91836.88
2018-02-20T03:22:51.413Z,91839.79
2018-02-20T03:23:40.502Z,91834.25
2018-02-20T03:24:29.543Z,91840.38
2018-02-20T03:25:21.830Z,91833.22
2018-02-20T03:26:10.875Z,91840.77
2018-02-20T03:26:59.942Z,91837.75
2018-02-20T03:27:48.994Z,91836.97
2018-02-20T03:28:38.030Z,91837.66
2018-02-20T03:29:27.109Z,91838.69
2018-02-20T03:30:16.150Z,91833.77
2018-02-20T03:31:05.206Z,91835.94
2018-02-20T03:31:54.242Z,91841.48
2018-02-20T03:32:43.282Z,91838.82
2018-02-20T03:33:32.337Z,91838.50
2018-02-20T03:34:21.377Z,91835.78
2018-02-20T03:35:10.479Z,91836.58
2018-02-20T03:35:59.584Z,91833.93
2018-02-20T03:36:48.652Z,91838.66
2018-02-20T03:37:37.823Z,91837.27
2018-02-20T03:38:26.893Z,91836.45
2018-02-20T03:39:15.945Z,91832.64
2018-02-20T03:40:04.983Z,91834.06
2018-02-20T03:40:54.033Z,91834.67
2018-02-20T03:41:43.084Z,91837.09
2018-02-20T03:42:32.119Z,91835.97
2018-02-20T03:43:21.554Z,91837.14
2018-02-20T03:44:10.602Z,91831.89
2018-02-20T03:44:59.654Z,91836.75
2018-02-20T03:45:48.702Z,91836.99
2018-02-20T03:46:37.731Z,91834.19
2018-02-20T03:47:26.825Z,91830.73
2018-02-20T03:48:15.885Z,91831.94
2018-02-20T03:49:04.951Z,91829.42
2018-02-20T03:49:56.375Z,91827.45
2018-02-20T03:50:45.411Z,91833.70
2018-02-20T03:51:34.467Z,91831.52
2018-02-20T03:52:23.510Z,91831.13
2018-02-20T03:53:12.651Z,91827.14
2018-02-20T03:54:01.708Z,91824.63
2018-02-20T03:54:50.749Z,91823.08
2018-02-20T03:55:39.799Z,91823.36
2018-02-20T03:56:28.877Z,91823.14
2018-02-20T03:57:17.930Z,91828.13
2018-02-20T03:58:07.180Z,91819.52
2018-02-20T03:58:56.771Z,91823.22
2018-02-20T03:59:45.822Z,91823.23
2018-02-20T04:00:34.939Z,91823.76
2018-02-20T04:01:24.050Z,91823.17
2018-02-20T04:02:13.150Z,91824.41
2018-02-20T04:03:02.214Z,91827.80
2018-02-20T04:03:51.251Z,91828.38
2018-02-20T04:04:40.306Z,91820.47
2018-02-20T04:05:29.356Z,91826.57
2018-02-20T04:07:34.699Z,91819.11
2018-02-20T04:08:24.136Z,91828.27
2018-02-20T04:09:13.201Z,91822.91
2018-02-20T04:10:02.237Z,91819.58
2018-02-20T04:10:51.286Z,91820.78
2018-02-20T04:11:40.318Z,91823.22
2018-02-20T04:12:29.440Z,91819.27
2018-02-20T04:13:18.496Z,91815.80
2018-02-20T04:14:07.543Z,91823.86
2018-02-20T04:14:56.591Z,91822.13
2018-02-20T04:15:45.852Z,91822.14
2018-02-20T04:16:34.891Z,91822.75
2018-02-20T04:17:23.986Z,91824.23
2018-02-20T04:18:13.026Z,91820.59
2018-02-20T04:19:02.167Z,91828.17
2018-02-20T04:19:51.215Z,91820.97
2018-02-20T04:20:40.277Z,91825.70
2018-02-20T04:21:29.318Z,91823.41
2018-02-20T04:22:18.362Z,91819.02
2018-02-20T04:23:07.411Z,91822.72
2018-02-20T04:23:56.469Z,91822.70
2018-02-20T04:24:45.556Z,91819.03
2018-02-20T04:25:40.866Z,91825.09
2018-02-20T04:26:29.929Z,91823.34
2018-02-20T04:27:18.977Z,91822.95
2018-02-20T04:28:08.062Z,91824.84
2018-02-20T04:28:57.107Z,91823.95
2018-02-20T04:29:46.151Z,91829.27
2018-02-20T04:30:35.193Z,91829.05
2018-02-20T04:31:24.466Z,91826.02
2018-02-20T04:32:13.498Z,91828.91
2018-02-20T04:33:02.535Z,91826.49
2018-02-20T04:33:51.804Z,91829.63
2018-02-20T04:34:40.855Z,91833.22
2018-02-20T04:35:29.906Z,91827.06
2018-02-20T04:36:18.942Z,91827.62
2018-02-20T04:37:07.988Z,91828.42
2018-02-20T04:37:57.056Z,91830.15
2018-02-20T04:38:46.220Z,91831.64
2018-02-20T04:39:35.258Z,91833.90
2018-02-20T04:40:24.313Z,91831.52
2018-02-20T04:41:13.388Z,91828.77
2018-02-20T04:42:02.423Z,91829.09
2018-02-20T04:42:51.485Z,91828.87
2018-02-20T04:43:40.537Z,91832.98
2018-02-20T04:44:29.668Z,91836.06
2018-02-20T04:45:18.703Z,91830.02
2018-02-20T04:46:07.738Z,91833.94
2018-02-20T04:46:56.780Z,91830.06
2018-02-20T04:47:45.833Z,91831.55
2018-02-20T04:48:34.875Z,91831.27
2018-02-20T04:49:23.922Z,91832.89
2018-02-20T04:50:13.046Z,91832.98
2018-02-20T04:51:02.107Z,91823.76
2018-02-20T04:51:51.168Z,91831.27
2018-02-20T04:52:40.206Z,91828.03
2018-02-20T04:53:29.349Z,91835.00
2018-02-20T04:54:18.404Z,91829.69
2018-02-20T04:55:07.453Z,91829.36
2018-02-20T04:55:56.651Z,91826.83
2018-02-20T04:56:45.691Z,91826.92
2018-02-20T04:57:34.734Z,91830.38
2018-02-20T04:58:23.786Z,91826.49
2018-02-20T04:59:12.845Z,91830.00
2018-02-20T05:00:01.905Z,91828.57
2018-02-20T05:00:50.970Z,91828.91
2018-02-20T05:01:40.076Z,91828.55
2018-02-20T05:02:29.131Z,91832.92
2018-02-20T05:03:18.195Z,91830.52
2018-02-20T05:04:07.247Z,91828.63
2018-02-20T05:04:56.303Z,91836.77
2018-02-20T05:05:45.347Z,91833.17
2018-02-20T05:06:34.397Z,91830.55
2018-02-20T05:07:23.506Z,91829.09
2018-02-20T05:08:12.572Z,91832.16
2018-02-20T05:09:01.628Z,91835.23
2018-02-20T05:09:50.719Z,91831.51
2018-02-20T05:10:39.764Z,91839.02
2018-02-20T05:11:28.800Z,91836.83
2018-02-20T05:12:17.861Z,91834.42
2018-02-20T05:13:07.378Z,91837.19
2018-02-20T05:13:56.432Z,91839.84
2018-02-20T05:14:45.509Z,91834.21
2018-02-20T05:15:34.572Z,91839.83
2018-02-20T05:16:23.642Z,91836.88
2018-02-20T05:17:12.689Z,91838.00
2018-02-20T05:18:01.736Z,91833.30
2018-02-20T05:18:50.926Z,91839.98
2018-02-20T05:19:39.979Z,91836.30
2018-02-20T05:20:29.042Z,91840.84
2018-02-20T05:21:18.384Z,91837.87
2018-02-20T05:22:07.508Z,91835.28
2018-02-20T05:22:56.610Z,91837.80
2018-02-20T05:23:45.652Z,91834.57
2018-02-20T05:24:34.776Z,91837.30
2018-02-20T05:25:23.809Z,91837.87
2018-02-20T05:26:12.866Z,91838.42
2018-02-20T05:27:01.931Z,91836.47
2018-02-20T05:27:50.985Z,91839.46
2018-02-20T05:28:40.051Z,91843.38
2018-02-20T05:29:29.116Z,91837.49
2018-02-20T05:30:18.204Z,91842.61
2018-02-20T05:31:07.280Z,91837.78
2018-02-20T05:31:56.319Z,91842.70
2018-02-20T05:32:46.414Z,91843.77
2018-02-20T05:33:35.451Z,91845.33
2018-02-20T05:34:24.509Z,91847.08
2018-02-20T05:35:13.560Z,91845.43
2018-02-20T05:36:02.895Z,91847.01
2018-02-20T05:36:51.969Z,91849.44
2018-02-20T05:37:41.024Z,91848.77
2018-02-20T05:38:30.111Z,91848.15
2018-02-20T05:39:19.149Z,91849.55
2018-02-20T05:40:08.257Z,91847.08
2018-02-20T05:40:57.299Z,91851.36
2018-02-20T05:41:46.348Z,91848.15
2018-02-20T05:42:36.282Z,91847.56
2018-02-20T05:43:25.324Z,91852.13
2018-02-20T05:44:14.369Z,91855.02
2018-02-20T05:45:03.409Z,91851.62
2018-02-20T05:45:52.451Z,91852.56
2018-02-20T05:46:41.536Z,91852.49
2018-02-20T05:47:30.577Z,91856.28
2018-02-20T05:48:19.701Z,91856.64
2018-02-20T05:49:08.743Z,91854.53
2018-02-20T05:49:57.845Z,91856.77
2018-02-20T05:50:46.898Z,91858.78
2018-02-20T05:51:35.944Z,91855.61
2018-02-20T05:52:25.020Z,91859.08
2018-02-20T05:53:14.083Z,91859.20
2018-02-20T05:54:03.647Z,91864.48
2018-02-20T05:54:52.688Z,91863.13
2018-02-20T05:55:41.764Z,91858.45
2018-02-20T05:56:30.809Z,91860.59
2018-02-20T05:57:19.862Z,91859.27
2018-02-20T05:58:08.956Z,91861.66
2018-02-20T05:58:58.036Z,91870.45
2018-02-20T05:59:47.095Z,91866.17
2018-02-20T06:00:37.884Z,91863.38
2018-02-20T06:01:27.060Z,91864.84
2018-02-20T06:02:16.124Z,91862.02
2018-02-20T06:03:05.241Z,91860.81
2018-02-20T06:03:54.289Z,91868.47
2018-02-20T06:04:43.344Z,91862.54
2018-02-20T06:05:32.400Z,91866.11
2018-02-20T06:06:21.457Z,91858.91
2018-02-20T06:07:10.606Z,91863.38
2018-02-20T06:07:59.675Z,91866.45
2018-02-20T06:08:48.753Z,91866.10
2018-02-20T06:09:37.834Z,91868.23
2018-02-20T06:10:26.908Z,91863.44
2018-02-20T06:11:15.966Z,91865.48
2018-02-20T06:12:05.014Z,91864.58
2018-02-20T06:12:54.120Z,91856.63
2018-02-20T06:13:43.176Z,91862.59
2018-02-20T06:14:32.213Z,91870.86
2018-02-20T06:15:21.263Z,91867.97
2018-02-20T06:16:10.376Z,91863.69
2018-02-20T06:16:59.424Z,91867.20
2018-02-20T06:17:48.471Z,91869.70
2018-02-20T06:18:38.009Z,91869.24
2018-02-20T06:19:27.107Z,91866.10
2018-02-20T06:20:16.192Z,91872.00
2018-02-20T06:21:06.119Z,91861.59
2018-02-20T06:21:55.181Z,91868.27
2018-02-20T06:22:44.238Z,91864.48
2018-02-20T06:23:33.285Z,91870.13
2018-02-20T18:58:49.734Z,91573.83
2018-02-20T18:59:39.582Z,91571.97
2018-02-20T19:00:28.657Z,91570.28
2018-02-20T19:01:17.712Z,91573.56
2018-02-20T19:02:06.777Z,91566.48
2018-02-20T19:02:55.950Z,91570.81
2018-02-20T19:03:45.011Z,91575.08
2018-02-20T19:04:34.637Z,91574.19
2018-02-20T19:05:23.693Z,91570.02
2018-02-20T19:06:12.761Z,91572.50
2018-02-20T19:07:01.842Z,91571.63
2018-02-20T19:07:51.081Z,91574.81
2018-02-20T19:08:40.166Z,91573.48
2018-02-20T19:09:29.222Z,91578.81
2018-02-20T19:10:18.392Z,91574.55
2018-02-20T19:11:07.496Z,91573.41
2018-02-20T19:11:56.590Z,91574.82
2018-02-20T19:12:45.630Z,91577.48
2018-02-20T19:13:34.694Z,91573.50
2018-02-20T19:14:23.772Z,91577.13
2018-02-20T19:15:12.870Z,91573.77
2018-02-20T19:16:01.956Z,91570.30
2018-02-20T19:16:51.026Z,91575.53
2018-02-20T19:17:45.409Z,91576.86
2018-02-20T19:18:34.513Z,91575.18
2018-02-20T19:19:23.642Z,91585.38
2018-02-20T19:20:13.446Z,91578.72
2018-02-20T19:21:02.606Z,91579.96
2018-02-20T19:21:51.694Z,91582.00
2018-02-20T19:22:40.753Z,91581.66
2018-02-20T19:23:29.804Z,91583.78
2018-02-20T19:24:18.848Z,91586.27
2018-02-20T19:25:07.900Z,91581.38
2018-02-20T19:25:56.951Z,91582.81
2018-02-20T19:26:46.038Z,91583.16
2018-02-20T19:27:35.171Z,91580.68
2018-02-20T19:28:24.230Z,91576.16
2018-02-20T19:29:13.289Z,91579.44
2018-02-20T19:30:02.357Z,91573.76
2018-02-20T19:30:51.436Z,91578.28
2018-02-20T19:31:40.511Z,91575.35
2018-02-20T19:32:29.629Z,91569.67
2018-02-20T19:33:18.800Z,91571.36
2018-02-20T19:34:07.881Z,91570.75
2018-02-20T19:34:56.950Z,91570.03
2018-02-20T19:35:46.070Z,91567.99
2018-02-20T19:36:35.164Z,91572.07
2018-02-20T19:37:24.229Z,91567.11
2018-02-20T19:38:13.318Z,91569.05
2018-02-20T19:39:02.469Z,91570.39
2018-02-20T19:39:51.536Z,91566.22
2018-02-20T19:40:40.630Z,91576.15
2018-02-20T19:41:29.721Z,91574.64
2018-02-20T19:42:18.767Z,91572.07
2018-02-20T19:43:07.845Z,91576.59
2018-02-20T19:43:56.890Z,91573.05
2018-02-20T19:44:46.426Z,91574.20
2018-02-20T19:45:35.501Z,91570.66
2018-02-20T19:46:24.580Z,91572.78
2018-02-20T19:47:13.664Z,91572.16
2018-02-20T19:48:02.955Z,91577.75
2018-02-20T19:48:52.065Z,91569.77
2018-02-20T19:49:41.132Z,91567.91
2018-02-20T19:50:30.186Z,91572.88
2018-02-20T19:51:19.238Z,91567.20
2018-02-20T19:52:08.310Z,91567.46
2018-02-20T19:52:57.444Z,91567.20
2018-02-20T19:53:46.500Z,91565.34
2018-02-20T19:54:35.553Z,91568.09
2018-02-20T19:55:24.612Z,91563.12
2018-02-20T19:56:13.730Z,91562.50
2018-02-20T19:57:02.805Z,91568.80
2018-02-20T19:57:52.011Z,91563.65
2018-02-20T19:58:41.300Z,91561.43
2018-02-20T19:59:30.463Z,91564.89
2018-02-20T20:00:19.564Z,91559.66
2018-02-20T20:01:08.690Z,91559.03
2018-02-20T20:01:57.788Z,91563.03
2018-02-20T20:02:46.945Z,91558.23
2018-02-20T20:03:36.062Z,91556.47
2018-02-20T20:04:25.334Z,91555.22
2018-02-20T20:05:14.453Z,91554.47
2018-02-20T20:06:03.808Z,91557.52
2018-02-20T20:06:52.976Z,91551.56
2018-02-20T20:07:42.046Z,91555.53
2018-02-20T20:08:31.089Z,91558.36
2018-02-20T20:09:20.707Z,91550.00
2018-02-20T20:10:09.979Z,91557.20
2018-02-20T20:10:59.031Z,91558.13
2018-02-20T20:11:48.107Z,91556.70
2018-02-20T20:12:37.186Z,91555.66
2018-02-20T20:13:26.249Z,91553.80
2018-02-20T20:14:15.345Z,91548.48
2018-02-20T20:15:04.379Z,91550.28
2018-02-20T20:15:53.487Z,91548.16
2018-02-20T20:16:42.529Z,91548.69
2018-02-20T20:17:31.589Z,91547.63
2018-02-20T20:18:20.640Z,91544.16
2018-02-20T20:19:09.777Z,91540.63
2018-02-20T20:19:58.834Z,91537.24
2018-02-20T20:20:48.236Z,91539.45
2018-02-20T20:21:37.887Z,91537.78
2018-02-20T20:22:26.943Z,91543.02
2018-02-20T20:23:16.130Z,91536.80
2018-02-20T20:24:05.285Z,91540.56
2018-02-20T20:24:54.515Z,91542.70
2018-02-20T20:25:43.607Z,91542.08
2018-02-20T20:26:32.740Z,91540.05
2018-02-20T20:27:21.928Z,91543.86
2018-02-20T20:28:11.109Z,91542.09
2018-02-20T20:29:00.483Z,91544.22
2018-02-20T20:29:49.838Z,91546.80
2018-02-20T20:30:39.050Z,91552.56
2018-02-20T20:31:28.324Z,91550.34
2018-02-20T20:32:17.403Z,91554.60
2018-02-20T20:33:06.968Z,91551.50
2018-02-20T20:33:56.141Z,91546.17
2018-02-20T20:34:45.220Z,91551.77
2018-02-20T20:35:34.306Z,91552.73
2018-02-20T20:36:23.364Z,91552.38
2018-02-20T20:37:12.787Z,91555.31
2018-02-20T20:38:02.262Z,91556.91
2018-02-20T20:38:51.590Z,91547.69
2018-02-20T20:39:40.643Z,91547.16
2018-02-20T20:40:29.778Z,91552.30
2018-02-20T20:41:18.845Z,91550.70
2018-02-20T20:42:07.912Z,91549.19
2018-02-20T20:42:56.958Z,91546.61
2018-02-20T20:43:46.199Z,91543.86
2018-02-20T20:44:35.400Z,91552.03
2018-02-20T20:45:24.508Z,91550.61
2018-02-20T20:46:13.891Z,91546.53
2018-02-20T20:47:03.386Z,91545.64
2018-02-20T20:47:52.545Z,91547.50
2018-02-20T20:48:41.677Z,91540.05
2018-02-20T20:49:30.740Z,91541.47
2018-02-20T20:50:19.953Z,91542.98
2018-02-20T20:51:09.127Z,91542.98
2018-02-20T20:51:58.222Z,91544.05
2018-02-20T20:52:47.272Z,91544.58
2018-02-20T20:53:36.348Z,91543.95
2018-02-20T20:54:25.399Z,91544.48
2018-02-20T20:55:14.515Z,91546.97
2018-02-20T20:56:03.663Z,91539.44
2018-02-20T20:56:52.746Z,91539.88
2018-02-20T20:57:42.416Z,91538.45
2018-02-20T20:58:32.329Z,91540.94
2018-02-20T20:59:21.936Z,91543.95
2018-02-20T21:00:11.196Z,91541.30
2018-02-20T21:01:00.244Z,91539.26
2018-02-20T21:01:49.533Z,91539.88
2018-02-20T21:02:38.654Z,91535.80
2018-02-20T21:03:27.731Z,91538.38
2018-02-20T21:04:16.787Z,91536.51
2018-02-20T21:05:05.837Z,91534.64
2018-02-20T21:05:54.904Z,91537.57
2018-02-20T21:06:43.969Z,91538.99
2018-02-20T21:07:33.055Z,91535.89
2018-02-20T21:08:22.197Z,91536.86
2018-02-20T21:09:11.637Z,91538.81
2018-02-20T21:10:00.794Z,91538.28
2018-02-20T21:10:50.670Z,91543.34
2018-02-20T21:11:39.945Z,91546.09
2018-02-20T21:12:29.046Z,91544.05
2018-02-20T21:13:18.135Z,91538.99
2018-02-20T21:14:07.304Z,91541.74
2018-02-20T21:14:56.367Z,91543.25
2018-02-20T21:15:45.464Z,91542.63
2018-02-20T21:16:34.538Z,91541.74
2018-02-20T21:17:23.676Z,91547.16
2018-02-20T21:18:12.748Z,91542.80
2018-02-20T21:19:01.817Z,91540.05
2018-02-20T21:19:50.988Z,91541.65
2018-02-20T21:20:40.236Z,91547.77
2018-02-20T21:21:29.302Z,91539.34
2018-02-20T21:22:18.534Z,91537.57
2018-02-20T21:23:07.583Z,91543.88
2018-02-20T21:23:56.646Z,91545.55
2018-02-20T21:24:45.694Z,91539.43
2018-02-20T21:25:34.817Z,91549.98
2018-02-20T21:26:23.887Z,91545.73
2018-02-20T21:27:13.021Z,91547.86
2018-02-20T21:28:02.131Z,91541.56
2018-02-20T21:28:51.205Z,91538.81
2018-02-20T21:29:40.287Z,91538.37
2018-02-20T21:30:29.388Z,91535.62
2018-02-20T21:31:18.912Z,91539.08
2018-02-20T21:32:07.981Z,91541.20
2018-02-20T21:32:57.054Z,91539.16
2018-02-20T21:33:46.128Z,91535.34
2018-02-20T21:34:35.232Z,91537.92
2018-02-20T21:35:24.367Z,91537.12
2018-02-20T21:36:13.408Z,91538.28
2018-02-20T21:37:02.447Z,91536.59
2018-02-20T21:37:51.496Z,91534.64
2018-02-20T21:38:40.591Z,91533.23
2018-02-20T21:39:29.636Z,91540.85
2018-02-20T21:40:18.742Z,91534.38
2018-02-20T21:41:07.790Z,91542.80
2018-02-20T21:41:56.843Z,91539.61
2018-02-20T21:42:45.910Z,91537.12
2018-02-20T21:43:35.091Z,91541.47
2018-02-20T21:44:24.137Z,91540.41
2018-02-20T21:45:13.344Z,91541.20
2018-02-20T21:46:02.393Z,91542.19
2018-02-20T21:46:51.449Z,91540.77
2018-02-20T21:47:40.510Z,91548.75
2018-02-20T21:48:29.579Z,91549.37
2018-02-20T21:49:18.642Z,91540.85
2018-02-20T21:50:07.674Z,91543.52
2018-02-20T21:50:56.939Z,91539.52
2018-02-20T21:51:46.011Z,91544.48
2018-02-20T21:52:35.082Z,91547.42
2018-02-20T21:53:24.140Z,91550.79
2018-02-20T21:54:13.179Z,91546.80
2018-02-20T21:55:02.256Z,91549.81
2018-02-20T21:55:51.303Z,91552.03
2018-02-20T21:56:40.405Z,91544.94
2018-02-20T21:57:29.459Z,91545.91
2018-02-20T21:58:18.498Z,91543.42
2018-02-20T21:59:07.542Z,91550.52
2018-02-20T21:59:56.592Z,91547.69
2018-02-20T22:00:45.627Z,91546.97
2018-02-20T22:01:34.701Z,91543.69
2018-02-20T22:02:23.844Z,91545.47
2018-02-20T22:03:12.897Z,91551.50
2018-02-20T22:04:01.956Z,91552.73
2018-02-20T22:04:51.005Z,91557.62
2018-02-20T22:05:40.064Z,91549.37
2018-02-20T22:06:29.109Z,91557.97
2018-02-20T22:07:18.164Z,91551.67
2018-02-20T22:08:07.640Z,91555.93
2018-02-20T22:08:56.692Z,91546.17
2018-02-20T22:09:45.752Z,91553.36
2018-02-20T22:10:34.803Z,91555.39
2018-02-20T22:11:23.868Z,91556.91
2018-02-20T22:12:12.919Z,91552.38
2018-02-20T22:13:01.966Z,91549.02
2018-02-20T22:13:51.058Z,91553.63